createdAt,value
2023-03-23T15:59:48.964Z,45.20
2023-03-23T16:02:50.113Z,45.12
2023-03-23T16:05:50.016Z,45.89
2023-03-23T16:08:53.969Z,45.77
2023-03-23T16:11:55.027Z,46.04
2023-03-23T16:14:54.967Z,46.74
2023-03-23T16:17:55.040Z,47.12
2023-03-23T16:20:55.006Z,47.33
2023-03-23T16:23:54.949Z,47.86
2023-03-23T16:26:54.958Z,47.85
2023-03-23T16:30:03.592Z,48.21
2023-03-23T16:33:03.992Z,48.67
2023-03-23T16:36:05.085Z,49.38
2023-03-23T16:39:04.982Z,49.47
2023-03-23T16:42:05.006Z,49.30
2023-03-23T16:45:05.029Z,49.37
2023-03-23T16:48:08.128Z,49.36
2023-03-23T16:51:07.993Z,50.05
2023-03-23T16:54:07.981Z,50.42
2023-03-23T16:57:08.036Z,51.40
2023-03-23T17:00:08.032Z,51.26
2023-03-23T17:03:09.096Z,51.75
2023-03-23T17:06:08.984Z,52.47
2023-03-23T17:09:08.991Z,52.63
2023-03-23T17:12:09.002Z,53.09
2023-03-23T17:15:08.980Z,53.36
2023-03-23T17:18:09.007Z,53.24
2023-03-23T17:21:08.975Z,54.13
2023-03-23T17:24:09.005Z,54.37
2023-03-23T17:27:09.029Z,54.93
2023-03-23T17:30:08.987Z,54.71
2023-03-23T17:33:09.032Z,55.49
2023-03-23T17:36:09.027Z,55.80
2023-03-23T17:39:09.082Z,55.91
2023-03-23T17:42:09.020Z,57.45
2023-03-23T17:45:09.005Z,57.14
2023-03-23T17:48:09.278Z,58.28
2023-03-23T17:51:10.023Z,58.31
2023-03-23T17:54:10.000Z,58.43
2023-03-23T17:57:10.026Z,58.33
2023-03-23T18:00:10.010Z,59.22
2023-03-23T18:03:10.079Z,59.52
2023-03-23T18:06:17.983Z,59.88
2023-03-23T18:09:17.997Z,59.71
2023-03-23T18:12:18.032Z,60.04
2023-03-23T18:15:17.979Z,60.50
2023-03-23T18:18:19.014Z,60.50
2023-03-23T18:21:21.027Z,60.27
2023-03-23T18:24:21.040Z,60.75
2023-03-23T18:27:20.999Z,60.75
2023-03-23T18:30:22.059Z,61.38
2023-03-23T18:33:21.972Z,62.01
2023-03-23T18:36:23.089Z,62.03
2023-03-23T18:39:23.022Z,61.80
2023-03-23T18:42:23.003Z,61.90
2023-03-23T18:45:23.022Z,62.28
2023-03-23T18:48:23.008Z,62.90
2023-03-23T18:51:23.021Z,62.46
2023-03-23T18:54:24.005Z,63.56
2023-03-23T18:57:25.032Z,64.00
2023-03-23T19:00:25.010Z,64.94
2023-03-23T19:03:25.108Z,64.48
2023-03-23T19:06:31.933Z,65.58
2023-03-23T19:09:32.033Z,65.79
2023-03-23T19:12:32.041Z,65.90
2023-03-23T19:15:32.087Z,66.99
2023-03-23T19:18:31.987Z,66.55
2023-03-23T19:21:32.506Z,67.85
2023-03-23T19:24:33.009Z,67.60
2023-03-23T19:27:33.024Z,67.94
2023-03-23T19:30:33.029Z,68.19
2023-03-23T19:33:33.012Z,67.80
2023-03-23T19:36:36.061Z,67.75
2023-03-23T19:39:36.399Z,68.07
2023-03-23T19:42:36.037Z,67.97
2023-03-23T19:45:36.433Z,68.45
2023-03-23T19:48:39.585Z,69.01
2023-03-23T19:51:39.986Z,69.69
2023-03-23T19:54:40.813Z,69.15
2023-03-23T19:57:42.409Z,69.68
2023-03-23T20:00:42.041Z,70.46
2023-03-23T20:03:42.003Z,70.75
2023-03-23T20:06:42.024Z,70.29
2023-03-23T20:09:42.006Z,70.60
2023-03-23T20:12:42.047Z,71.37
2023-03-23T20:15:44.307Z,70.68
2023-03-23T20:18:45.128Z,71.00
2023-03-23T20:21:46.030Z,70.73
2023-03-23T20:24:46.034Z,71.10
2023-03-23T20:27:46.040Z,70.69
2023-03-23T20:30:46.007Z,70.26
2023-03-23T20:34:12.035Z,70.36
2023-03-23T20:37:13.015Z,70.96
2023-03-23T20:40:14.044Z,71.14
2023-03-23T20:43:14.032Z,71.18
2023-03-23T20:46:15.024Z,71.52
2023-03-23T20:49:15.000Z,71.63
2023-03-23T20:52:15.044Z,72.32
2023-03-23T20:55:15.002Z,72.27
2023-03-23T20:58:15.004Z,72.91
2023-03-23T21:01:16.105Z,72.39
2023-03-23T21:04:22.045Z,73.68
2023-03-23T21:07:23.076Z,73.49
2023-03-23T21:10:22.989Z,73.68
2023-03-23T21:13:23.007Z,73.57
2023-03-23T21:16:23.044Z,73.58
2023-03-23T21:19:24.038Z,74.33
2023-03-23T21:22:24.994Z,74.97
2023-03-23T21:25:35.390Z,74.50
2023-03-23T21:28:34.998Z,73.92
2023-03-23T21:31:40.003Z,73.63
2023-03-23T21:34:39.997Z,73.46
2023-03-23T21:37:33.307Z,73.20
2023-03-23T21:40:34.039Z,73.41
2023-03-23T21:43:34.032Z,73.17
2023-03-23T21:46:34.016Z,73.25
2023-03-23T21:49:34.055Z,73.69
2023-03-23T21:52:33.979Z,74.12
2023-03-23T21:55:36.025Z,73.91
2023-03-23T21:58:37.986Z,73.89
2023-03-23T22:01:38.065Z,74.16
2023-03-23T22:04:38.038Z,74.64
2023-03-23T22:07:39.989Z,74.82
2023-03-23T22:10:39.998Z,75.26
2023-03-23T22:13:41.043Z,74.88
2023-03-23T22:16:41.050Z,75.50
2023-03-23T22:19:40.990Z,75.72
2023-03-23T22:22:41.033Z,75.74
2023-03-23T22:25:41.037Z,76.04
2023-03-23T22:28:43.056Z,76.19
2023-03-23T22:34:45.988Z,76.80
2023-03-23T22:37:46.049Z,76.89
2023-03-23T22:40:46.264Z,76.94
2023-03-23T22:43:47.018Z,77.90
2023-03-23T22:46:47.045Z,78.33
2023-03-23T22:49:47.056Z,78.08
2023-03-23T22:52:47.002Z,78.09
2023-03-23T22:55:47.057Z,78.52
2023-03-23T22:58:47.004Z,78.10
2023-03-23T23:01:47.053Z,79.11
2023-03-23T23:04:48.038Z,79.37
2023-03-23T23:07:48.058Z,79.49
2023-03-23T23:10:49.007Z,80.21
2023-03-23T23:13:49.010Z,80.12
2023-03-23T23:16:49.044Z,80.17
2023-03-23T23:19:49.001Z,80.52
2023-03-23T23:22:49.017Z,79.91
2023-03-23T23:25:49.008Z,79.79
2023-03-23T23:28:49.045Z,79.86
2023-03-23T23:31:49.008Z,79.99
2023-03-23T23:34:50.068Z,80.16
2023-03-23T23:37:50.041Z,80.74
2023-03-23T23:40:50.094Z,80.54
2023-03-23T23:43:50.024Z,80.74
2023-03-23T23:46:50.036Z,81.34
2023-03-23T23:49:50.023Z,81.05
2023-03-23T23:52:51.026Z,82.16
2023-03-23T23:55:53.056Z,82.55
2023-03-23T23:58:52.997Z,83.17
